createdAt,value
2022-09-15T00:04:19.691Z,17.43
2022-09-15T00:09:21.353Z,17.41
2022-09-15T00:14:23.033Z,17.43
2022-09-15T00:19:24.618Z,17.43
2022-09-15T00:24:26.275Z,17.63
2022-09-15T00:29:27.966Z,17.56
2022-09-15T00:34:29.743Z,17.44
2022-09-15T00:39:31.410Z,17.51
2022-09-15T00:45:00.640Z,17.44
2022-09-15T00:50:10.602Z,17.36
2022-09-15T00:55:20.663Z,17.31
2022-09-15T01:00:25.315Z,17.27
2022-09-15T01:05:38.095Z,17.24
2022-09-15T01:10:41.217Z,17.20
2022-09-15T01:16:51.588Z,17.22
2022-09-15T01:21:30.357Z,17.29
2022-09-15T01:26:43.777Z,17.23
2022-09-15T01:32:20.507Z,17.30
2022-09-15T01:37:29.897Z,17.22
2022-09-15T01:42:32.426Z,17.33
2022-09-15T01:47:35.372Z,17.34
2022-09-15T01:52:43.031Z,17.36
2022-09-15T01:57:45.528Z,17.33
2022-09-15T02:02:56.786Z,17.38
2022-09-15T02:08:09.823Z,17.32
2022-09-15T02:13:32.791Z,17.28
2022-09-15T02:18:59.497Z,17.58
2022-09-15T02:24:07.650Z,17.49
2022-09-15T02:29:13.960Z,17.36
2022-09-15T02:34:24.735Z,17.41
2022-09-15T02:39:32.187Z,17.39
2022-09-15T02:44:33.762Z,17.41
2022-09-15T02:49:35.435Z,17.31
2022-09-15T02:54:37.131Z,17.26
2022-09-15T02:59:57.387Z,17.23
2022-09-15T03:04:59.263Z,17.23
2022-09-15T03:10:00.855Z,17.27
2022-09-15T03:15:02.438Z,17.21
2022-09-15T03:20:07.420Z,17.28
2022-09-15T03:25:10.664Z,17.63
2022-09-15T03:30:14.135Z,17.53
2022-09-15T03:35:15.795Z,17.32
2022-09-15T03:40:17.627Z,17.12
2022-09-15T03:45:19.384Z,17.09
2022-09-15T03:50:21.056Z,17.05
2022-09-15T03:55:22.735Z,17.03
2022-09-15T04:00:24.455Z,17.05
2022-09-15T04:05:26.078Z,17.02
2022-09-15T04:10:27.781Z,17.03
2022-09-15T04:15:29.469Z,16.98
2022-09-15T04:20:31.805Z,17.02
2022-09-15T04:25:33.515Z,17.02
2022-09-15T04:30:37.099Z,17.19
2022-09-15T04:35:39.530Z,17.57
2022-09-15T04:40:41.112Z,17.42
2022-09-15T04:45:43.275Z,17.15
2022-09-15T04:50:44.947Z,17.11
2022-09-15T04:55:46.577Z,16.90
2022-09-15T05:00:48.185Z,16.83
2022-09-15T05:05:49.910Z,16.83
2022-09-15T05:10:51.640Z,16.82
2022-09-15T05:15:53.369Z,16.82
2022-09-15T05:21:00.072Z,16.82
2022-09-15T05:26:04.544Z,16.86
2022-09-15T05:31:11.968Z,16.90
2022-09-15T05:36:15.179Z,16.79
2022-09-15T05:41:19.213Z,16.75
2022-09-15T05:46:20.940Z,16.65
2022-09-15T05:51:22.725Z,16.75
2022-09-15T05:56:24.425Z,16.75
2022-09-15T06:01:28.308Z,16.57
2022-09-15T06:06:33.258Z,16.65
2022-09-15T06:11:34.877Z,16.67
2022-09-15T06:16:36.516Z,16.59
2022-09-15T06:21:38.231Z,16.48
2022-09-15T06:26:40.389Z,16.56
2022-09-15T06:31:42.014Z,16.53
2022-09-15T06:36:43.711Z,16.50
2022-09-15T06:42:01.811Z,16.56
2022-09-15T06:47:04.447Z,16.62
2022-09-15T06:52:06.298Z,16.68
2022-09-15T06:57:08.129Z,16.72
2022-09-15T07:02:10.079Z,16.72
2022-09-15T07:07:11.754Z,16.82
2022-09-15T07:12:13.534Z,16.81
2022-09-15T07:17:15.136Z,16.58
2022-09-15T07:22:16.719Z,16.47
2022-09-15T07:27:18.304Z,16.36
2022-09-15T07:32:19.874Z,16.31
2022-09-15T07:37:21.517Z,16.16
2022-09-15T07:42:23.082Z,16.04
2022-09-15T07:47:24.728Z,16.00
2022-09-15T07:52:26.443Z,16.00
2022-09-15T07:57:28.071Z,16.10
2022-09-15T08:02:29.907Z,16.31
2022-09-15T08:07:31.508Z,16.48
2022-09-15T08:12:33.230Z,16.55
2022-09-15T08:17:34.991Z,16.60
2022-09-15T08:22:36.669Z,16.60
2022-09-15T08:27:38.643Z,16.59
2022-09-15T08:32:40.341Z,16.79
2022-09-15T08:37:41.960Z,17.11
2022-09-15T08:42:46.648Z,17.10
2022-09-15T08:47:51.288Z,17.10
2022-09-15T08:53:12.874Z,17.09
2022-09-15T08:58:20.548Z,17.23
2022-09-15T09:03:40.748Z,17.55
2022-09-15T09:09:06.435Z,17.99
2022-09-15T09:14:24.626Z,17.61
2022-09-15T09:20:08.938Z,17.49
2022-09-15T09:25:26.783Z,17.65
2022-09-15T09:30:33.294Z,17.95
2022-09-15T09:35:46.577Z,18.18
2022-09-15T09:40:49.587Z,18.34
2022-09-15T09:45:59.366Z,18.30
2022-09-15T09:51:26.411Z,18.64
2022-09-15T09:56:28.015Z,18.96
2022-09-15T10:01:30.342Z,19.21
2022-09-15T10:06:32.768Z,19.67
2022-09-15T10:11:54.702Z,20.00
2022-09-15T10:17:04.584Z,20.08
2022-09-15T10:22:06.258Z,20.17
2022-09-15T10:27:43.544Z,20.26
2022-09-15T10:32:45.352Z,20.45
2022-09-15T10:37:57.385Z,20.70
2022-09-15T10:43:24.408Z,20.87
2022-09-15T10:48:25.973Z,20.85
2022-09-15T10:53:43.659Z,21.14
2022-09-15T10:59:09.936Z,21.28
2022-09-15T11:04:44.473Z,20.99
2022-09-15T11:10:01.894Z,21.30
2022-09-15T11:15:22.594Z,21.53
2022-09-15T11:20:32.496Z,21.69
2022-09-15T11:25:41.699Z,21.36
2022-09-15T11:31:09.436Z,21.08
2022-09-15T11:36:19.856Z,20.70
2022-09-15T11:41:38.884Z,20.24
2022-09-15T11:47:05.715Z,20.12
2022-09-15T11:52:39.906Z,20.32
2022-09-15T11:58:16.354Z,20.28
2022-09-15T12:03:28.725Z,20.04
2022-09-15T12:08:33.772Z,20.07
2022-09-15T12:13:36.775Z,20.17
2022-09-15T12:18:40.950Z,20.58
2022-09-15T12:23:51.831Z,20.28
2022-09-15T12:29:04.909Z,20.04
2022-09-15T12:34:06.600Z,20.01
2022-09-15T12:39:28.428Z,20.26
2022-09-15T12:44:36.662Z,20.46
2022-09-15T12:49:46.109Z,20.54
2022-09-15T12:54:53.978Z,20.66
2022-09-15T13:00:42.315Z,20.51
2022-09-15T13:06:11.599Z,20.93
2022-09-15T13:11:29.572Z,20.95
2022-09-15T13:16:48.674Z,21.28
2022-09-15T13:22:03.419Z,21.43
2022-09-15T13:27:07.890Z,21.32
2022-09-15T13:32:18.851Z,21.49
2022-09-15T13:38:15.182Z,21.33
2022-09-15T13:43:30.278Z,21.13
2022-09-15T13:49:12.912Z,20.83
2022-09-15T13:54:19.383Z,20.64
2022-09-15T13:59:27.220Z,20.45
2022-09-15T14:04:32.392Z,20.43
2022-09-15T14:09:44.636Z,20.56
2022-09-15T14:14:58.583Z,20.31
2022-09-15T14:20:05.671Z,20.10
2022-09-15T14:25:14.321Z,20.33
2022-09-15T14:30:29.360Z,20.38
2022-09-15T14:35:36.809Z,19.84
2022-09-15T14:40:39.424Z,20.05
2022-09-15T14:51:15.521Z,20.22
2022-09-15T14:56:21.992Z,20.06
2022-09-15T15:01:40.684Z,20.18
2022-09-15T15:06:55.231Z,20.23
2022-09-15T15:12:00.584Z,20.20
2022-09-15T15:17:06.183Z,19.90
2022-09-15T15:22:15.792Z,19.77
2022-09-15T15:27:40.896Z,19.67
2022-09-15T15:32:43.230Z,19.86
2022-09-15T15:37:45.649Z,19.39
2022-09-15T15:43:07.987Z,18.87
2022-09-15T15:48:10.101Z,18.74
2022-09-15T15:53:11.802Z,18.49
2022-09-15T15:58:15.241Z,18.33
2022-09-15T16:03:18.311Z,18.41
2022-09-15T16:08:33.355Z,18.95
2022-09-15T16:13:35.127Z,18.67
2022-09-15T16:18:36.698Z,18.48
2022-09-15T16:23:38.476Z,18.68
2022-09-15T16:28:40.149Z,18.73
2022-09-15T16:33:43.061Z,18.70
2022-09-15T16:38:45.418Z,18.58
2022-09-15T16:43:47.354Z,18.41
2022-09-15T16:48:48.980Z,18.53
2022-09-15T16:53:53.614Z,18.31
2022-09-15T16:59:00.119Z,18.01
2022-09-15T17:04:03.463Z,18.22
2022-09-15T17:09:05.129Z,17.63
2022-09-15T17:14:07.225Z,17.23
2022-09-15T17:19:08.792Z,16.98
2022-09-15T17:24:10.661Z,17.12
2022-09-15T17:29:13.478Z,16.87
2022-09-15T17:34:15.189Z,17.08
2022-09-15T17:39:16.897Z,16.98
2022-09-15T17:44:19.705Z,17.10
2022-09-15T17:49:21.337Z,16.88
2022-09-15T17:54:23.420Z,16.66
2022-09-15T17:59:25.140Z,16.90
2022-09-15T18:04:26.903Z,16.99
2022-09-15T18:09:28.547Z,16.81
2022-09-15T18:14:31.068Z,16.59
2022-09-15T18:19:32.773Z,16.37
2022-09-15T18:24:34.437Z,16.36
2022-09-15T18:29:36.191Z,16.26
2022-09-15T18:34:37.871Z,16.23
2022-09-15T18:39:39.640Z,16.17
2022-09-15T18:44:41.297Z,15.93
2022-09-15T18:49:42.898Z,15.84
2022-09-15T18:54:56.587Z,15.77
2022-09-15T19:00:10.490Z,15.72
2022-09-15T19:05:46.571Z,15.79
2022-09-15T19:11:01.161Z,15.90
2022-09-15T19:16:08.739Z,15.89
2022-09-15T19:21:11.479Z,15.93
2022-09-15T19:26:15.761Z,16.39
2022-09-15T19:31:17.414Z,16.51
2022-09-15T19:36:27.911Z,16.36
2022-09-15T19:41:32.371Z,16.54
2022-09-15T19:46:34.047Z,16.52
2022-09-15T19:51:35.923Z,16.39
2022-09-15T19:56:38.752Z,16.19
2022-09-15T20:01:40.846Z,16.25
2022-09-15T20:06:42.453Z,16.42
2022-09-15T20:11:44.593Z,16.17
2022-09-15T20:16:47.773Z,16.30
2022-09-15T20:21:50.678Z,16.16
2022-09-15T20:26:53.908Z,16.12
2022-09-15T20:31:59.124Z,15.98
2022-09-15T20:37:00.866Z,15.98
2022-09-15T20:42:11.364Z,16.17
2022-09-15T20:47:13.218Z,16.04
2022-09-15T20:52:15.374Z,16.06
2022-09-15T20:57:17.131Z,16.15
2022-09-15T21:02:18.881Z,16.39
2022-09-15T21:07:20.461Z,16.51
2022-09-15T21:12:22.250Z,16.19
2022-09-15T21:17:24.068Z,15.90
2022-09-15T21:22:28.335Z,15.78
2022-09-15T21:27:30.680Z,15.90
2022-09-15T21:32:33.145Z,16.14
2022-09-15T21:37:34.859Z,16.32
2022-09-15T21:42:36.816Z,15.95
2022-09-15T21:47:38.392Z,16.55
2022-09-15T21:52:40.331Z,16.05
2022-09-15T21:57:41.949Z,15.99
2022-09-15T22:02:43.538Z,15.84
2022-09-15T22:07:45.196Z,15.75
2022-09-15T22:12:46.810Z,15.83
2022-09-15T22:17:48.474Z,16.17
2022-09-15T22:22:50.351Z,15.95
2022-09-15T22:27:52.083Z,15.87
2022-09-15T22:32:53.689Z,16.07
2022-09-15T22:37:55.297Z,16.50
2022-09-15T22:42:57.040Z,16.00
2022-09-15T22:47:58.902Z,15.94
2022-09-15T22:53:00.724Z,15.86
2022-09-15T22:58:02.393Z,16.27
2022-09-15T23:03:04.685Z,16.54
2022-09-15T23:08:06.288Z,16.51
2022-09-15T23:13:08.029Z,16.79
2022-09-15T23:18:10.265Z,16.42
2022-09-15T23:23:11.952Z,15.60
2022-09-15T23:28:13.686Z,14.95
2022-09-15T23:33:15.313Z,14.89
2022-09-15T23:38:19.108Z,14.76
2022-09-15T23:43:33.631Z,15.12
2022-09-15T23:48:35.482Z,14.93
2022-09-15T23:53:37.536Z,14.93
2022-09-15T23:58:39.631Z,14.89
